createdAt,value
2022-09-21T00:01:30.414Z,18.28
2022-09-21T00:04:03.087Z,18.42
2022-09-21T00:06:33.777Z,18.43
2022-09-21T00:09:03.940Z,18.22
2022-09-21T00:11:33.457Z,18.30
2022-09-21T00:14:04.465Z,18.37
2022-09-21T00:16:32.296Z,18.30
2022-09-21T00:19:00.624Z,18.21
2022-09-21T00:21:28.391Z,18.05
2022-09-21T00:23:55.983Z,18.06
2022-09-21T00:26:25.434Z,18.18
2022-09-21T00:28:59.823Z,18.19
2022-09-21T00:31:29.207Z,18.27
2022-09-21T00:33:58.605Z,18.10
2022-09-21T00:36:26.847Z,18.18
2022-09-21T00:38:58.736Z,18.10
2022-09-21T00:41:27.019Z,18.10
2022-09-21T00:44:17.250Z,17.99
2022-09-21T00:46:46.572Z,18.02
2022-09-21T00:49:16.428Z,18.00
2022-09-21T00:51:45.183Z,18.01
2022-09-21T00:54:18.116Z,18.10
2022-09-21T00:56:45.825Z,18.02
2022-09-21T00:59:15.137Z,18.18
2022-09-21T01:01:43.053Z,18.19
2022-09-21T01:04:13.656Z,18.18
2022-09-21T01:06:41.687Z,18.18
2022-09-21T01:09:09.897Z,18.08
2022-09-21T01:12:01.439Z,18.20
2022-09-21T01:14:28.644Z,18.74
2022-09-21T01:17:11.652Z,18.56
2022-09-21T01:20:15.454Z,18.57
2022-09-21T01:23:07.417Z,18.55
2022-09-21T01:25:59.386Z,18.49
2022-09-21T01:28:54.335Z,18.33
2022-09-21T01:31:28.623Z,18.21
2022-09-21T01:34:05.729Z,18.03
2022-09-21T01:36:34.900Z,17.69
2022-09-21T01:39:08.096Z,17.58
2022-09-21T01:41:38.596Z,17.39
2022-09-21T01:44:14.714Z,17.37
2022-09-21T01:46:42.554Z,16.99
2022-09-21T01:49:34.426Z,17.05
2022-09-21T01:52:40.020Z,17.01
2022-09-21T01:55:21.014Z,17.01
2022-09-21T01:57:54.402Z,16.75
2022-09-21T02:00:22.434Z,16.56
2022-09-21T02:02:53.850Z,16.46
2022-09-21T02:05:24.046Z,16.50
2022-09-21T02:07:53.587Z,16.53
2022-09-21T02:10:29.655Z,16.05
2022-09-21T02:13:01.243Z,16.01
2022-09-21T02:15:40.938Z,15.69
2022-09-21T02:18:22.294Z,15.84
2022-09-21T02:20:57.158Z,15.78
2022-09-21T02:23:37.485Z,15.69
2022-09-21T02:26:28.975Z,15.61
2022-09-21T02:29:12.258Z,15.60
2022-09-21T02:31:51.691Z,15.59
2022-09-21T02:34:33.520Z,15.22
2022-09-21T02:37:39.636Z,15.44
2022-09-21T02:40:48.382Z,15.45
2022-09-21T02:43:23.185Z,15.39
2022-09-21T02:46:15.542Z,15.35
2022-09-21T02:48:54.133Z,15.25
2022-09-21T02:51:29.606Z,15.21
2022-09-21T02:53:58.959Z,15.16
2022-09-21T02:56:27.433Z,15.38
2022-09-21T02:58:59.595Z,15.10
2022-09-21T03:01:28.160Z,15.41
2022-09-21T03:03:55.428Z,15.18
2022-09-21T03:06:25.545Z,15.25
2022-09-21T03:08:52.984Z,15.42
2022-09-21T03:11:20.380Z,15.39
2022-09-21T03:13:47.623Z,15.39
2022-09-21T03:16:15.001Z,15.54
2022-09-21T03:18:44.362Z,15.51
2022-09-21T03:21:12.450Z,15.19
2022-09-21T03:23:40.655Z,15.31
2022-09-21T03:26:08.816Z,15.13
2022-09-21T03:28:36.110Z,15.18
2022-09-21T03:31:03.518Z,15.13
2022-09-21T03:33:30.958Z,15.22
2022-09-21T03:35:58.398Z,15.35
2022-09-21T03:38:26.914Z,15.22
2022-09-21T03:40:58.119Z,15.30
2022-09-21T03:43:25.699Z,15.25
2022-09-21T03:45:53.066Z,15.23
2022-09-21T03:48:21.685Z,15.53
2022-09-21T03:50:50.183Z,15.44
2022-09-21T03:53:17.935Z,15.55
2022-09-21T03:55:45.902Z,15.43
2022-09-21T03:58:18.589Z,15.42
2022-09-21T04:00:46.696Z,15.34
2022-09-21T04:03:13.973Z,15.41
2022-09-21T04:05:43.910Z,15.35
2022-09-21T04:08:11.240Z,15.36
2022-09-21T04:10:40.985Z,15.48
2022-09-21T04:13:09.045Z,15.52
2022-09-21T04:15:36.780Z,15.49
2022-09-21T04:18:05.398Z,15.59
2022-09-21T04:20:32.702Z,15.34
2022-09-21T04:23:00.085Z,15.21
2022-09-21T04:25:30.829Z,15.11
2022-09-21T04:28:16.746Z,14.96
2022-09-21T04:30:46.937Z,14.94
2022-09-21T04:33:14.246Z,14.80
2022-09-21T04:35:41.503Z,14.82
2022-09-21T04:38:08.987Z,14.71
2022-09-21T04:40:36.273Z,14.67
2022-09-21T04:43:03.616Z,14.54
2022-09-21T04:45:31.086Z,14.68
2022-09-21T04:47:58.375Z,15.16
2022-09-21T04:50:25.681Z,15.40
2022-09-21T04:53:04.450Z,15.39
2022-09-21T04:55:32.083Z,15.44
2022-09-21T04:57:59.322Z,15.39
2022-09-21T05:00:26.916Z,15.43
2022-09-21T05:02:54.195Z,15.50
2022-09-21T05:05:21.566Z,15.53
2022-09-21T05:07:48.852Z,15.46
2022-09-21T05:10:16.438Z,15.32
2022-09-21T05:12:43.887Z,15.27
2022-09-21T05:15:17.014Z,15.40
2022-09-21T05:17:44.584Z,15.49
2022-09-21T05:20:11.879Z,15.36
2022-09-21T05:22:39.235Z,15.31
2022-09-21T05:25:07.498Z,15.08
2022-09-21T05:27:34.725Z,14.93
2022-09-21T05:30:02.279Z,15.02
2022-09-21T05:33:01.314Z,15.04
2022-09-21T05:35:28.583Z,15.00
2022-09-21T05:38:06.697Z,15.09
2022-09-21T05:40:34.960Z,14.98
2022-09-21T05:43:03.317Z,15.15
2022-09-21T05:45:31.094Z,15.51
2022-09-21T05:48:11.139Z,15.75
2022-09-21T05:50:42.211Z,15.82
2022-09-21T05:53:38.856Z,15.83
2022-09-21T05:56:24.422Z,16.05
2022-09-21T05:59:00.615Z,16.09
2022-09-21T06:01:54.265Z,16.06
2022-09-21T06:04:21.800Z,16.14
2022-09-21T06:06:49.667Z,16.00
2022-09-21T06:09:16.967Z,15.97
2022-09-21T06:11:44.263Z,15.81
2022-09-21T06:14:11.522Z,15.78
2022-09-21T06:16:43.208Z,15.71
2022-09-21T06:19:13.812Z,15.73
2022-09-21T06:21:42.140Z,15.80
2022-09-21T06:24:09.658Z,15.74
2022-09-21T06:26:36.987Z,15.81
2022-09-21T06:29:04.569Z,15.85
2022-09-21T06:31:31.818Z,15.93
2022-09-21T06:33:59.302Z,16.03
2022-09-21T06:36:26.596Z,15.92
2022-09-21T06:38:53.979Z,15.86
2022-09-21T06:41:21.622Z,15.97
2022-09-21T06:43:48.967Z,15.93
2022-09-21T06:46:16.240Z,15.99
2022-09-21T06:48:43.491Z,15.96
2022-09-21T06:51:10.715Z,16.07
2022-09-21T06:53:37.998Z,16.12
2022-09-21T06:56:10.199Z,16.17
2022-09-21T06:58:38.607Z,16.25
2022-09-21T07:01:07.899Z,16.31
2022-09-21T07:03:35.368Z,16.55
2022-09-21T07:06:02.961Z,16.77
2022-09-21T07:11:17.374Z,17.00
2022-09-21T07:13:45.440Z,17.01
2022-09-21T07:16:13.235Z,17.10
2022-09-21T07:18:44.478Z,17.06
2022-09-21T07:21:12.205Z,16.96
2022-09-21T07:23:39.417Z,17.16
2022-09-21T07:26:14.684Z,17.26
2022-09-21T07:28:42.691Z,17.32
2022-09-21T07:31:16.535Z,17.34
2022-09-21T07:33:47.084Z,17.23
2022-09-21T07:36:14.527Z,17.25
2022-09-21T07:38:43.675Z,17.49
2022-09-21T07:41:12.967Z,17.61
2022-09-21T07:43:40.846Z,17.68
2022-09-21T07:46:11.483Z,17.69
2022-09-21T07:48:39.512Z,17.76
2022-09-21T07:51:09.961Z,17.83
2022-09-21T07:53:39.582Z,17.90
2022-09-21T07:56:12.134Z,17.95
2022-09-21T07:58:58.136Z,17.99
2022-09-21T08:01:27.074Z,18.07
2022-09-21T08:03:56.402Z,18.26
2022-09-21T08:06:27.513Z,18.34
2022-09-21T08:08:57.830Z,19.47
2022-09-21T08:11:27.629Z,20.03
2022-09-21T08:13:57.955Z,21.77
2022-09-21T08:16:26.856Z,21.59
2022-09-21T08:18:54.151Z,20.80
2022-09-21T08:21:21.787Z,21.41
2022-09-21T08:23:49.660Z,21.18
2022-09-21T08:26:19.828Z,20.37
2022-09-21T08:28:49.269Z,20.94
2022-09-21T08:31:19.691Z,23.35
2022-09-21T08:33:48.386Z,25.87
2022-09-21T08:36:15.976Z,24.93
2022-09-21T08:38:43.221Z,24.03
2022-09-21T08:41:29.152Z,25.49
2022-09-21T08:44:10.946Z,24.83
2022-09-21T08:46:39.246Z,24.17
2022-09-21T08:49:11.735Z,23.76
2022-09-21T08:51:50.119Z,24.44
2022-09-21T08:54:27.148Z,26.38
2022-09-21T08:57:05.136Z,26.87
2022-09-21T08:59:34.525Z,28.11
2022-09-21T09:02:13.738Z,27.38
2022-09-21T09:04:49.917Z,26.72
2022-09-21T09:07:42.574Z,28.10
2022-09-21T09:10:36.157Z,28.87
2022-09-21T09:13:40.414Z,27.21
2022-09-21T09:16:26.483Z,27.98
2022-09-21T09:19:04.265Z,27.78
2022-09-21T09:21:39.366Z,27.05
2022-09-21T09:24:33.727Z,27.01
2022-09-21T09:27:21.984Z,26.84
2022-09-21T09:30:04.403Z,26.79
2022-09-21T09:32:59.252Z,27.35
2022-09-21T09:35:36.259Z,28.28
2022-09-21T09:38:29.651Z,27.98
2022-09-21T09:41:19.435Z,27.04
2022-09-21T09:44:21.666Z,28.12
2022-09-21T09:47:13.771Z,26.81
2022-09-21T09:49:53.627Z,25.57
2022-09-21T09:52:20.918Z,24.07
2022-09-21T09:54:49.057Z,24.55
2022-09-21T09:57:25.009Z,23.98
2022-09-21T09:59:55.590Z,23.31
2022-09-21T10:02:27.825Z,23.06
2022-09-21T10:05:05.900Z,23.50
2022-09-21T10:07:45.993Z,24.62
2022-09-21T10:10:33.711Z,25.37
2022-09-21T10:13:12.573Z,25.71
2022-09-21T10:15:51.541Z,26.47
2022-09-21T10:18:34.826Z,26.49
2022-09-21T10:21:06.851Z,25.61
2022-09-21T10:23:36.548Z,25.89
2022-09-21T10:26:10.476Z,26.85
2022-09-21T10:28:38.163Z,26.55
2022-09-21T10:31:10.041Z,26.96
2022-09-21T10:33:49.943Z,26.96
2022-09-21T10:36:37.497Z,27.07
2022-09-21T10:39:22.156Z,26.24
2022-09-21T10:42:19.711Z,27.78
2022-09-21T10:45:06.697Z,26.46
2022-09-21T10:47:40.741Z,26.24
2022-09-21T10:50:21.994Z,26.20
2022-09-21T10:52:53.523Z,26.33
2022-09-21T10:55:23.168Z,26.48
2022-09-21T10:57:52.404Z,27.31
2022-09-21T11:00:25.876Z,25.88
2022-09-21T11:02:54.945Z,26.38
2022-09-21T11:05:34.979Z,26.37
2022-09-21T11:08:15.360Z,25.61
2022-09-21T11:10:56.044Z,24.72
2022-09-21T11:13:47.460Z,25.08
2022-09-21T11:16:38.090Z,24.75
2022-09-21T11:19:41.800Z,24.69
2022-09-21T11:22:47.586Z,25.61
2022-09-21T11:25:45.666Z,25.78
2022-09-21T11:28:22.200Z,24.98
2022-09-21T11:30:57.132Z,24.87
2022-09-21T11:33:37.434Z,25.36
2022-09-21T11:36:26.144Z,25.20
2022-09-21T11:39:01.197Z,23.95
2022-09-21T11:42:18.981Z,23.03
2022-09-21T11:44:59.614Z,23.70
2022-09-21T11:47:52.614Z,23.66
2022-09-21T11:50:31.143Z,24.49
2022-09-21T11:53:05.968Z,23.30
2022-09-21T11:55:48.570Z,23.11
2022-09-21T11:58:27.495Z,23.21
2022-09-21T12:01:12.099Z,23.52
2022-09-21T12:04:20.108Z,23.02
2022-09-21T12:07:02.850Z,22.78
2022-09-21T12:09:50.049Z,22.84
2022-09-21T12:12:27.283Z,22.60
2022-09-21T12:15:08.885Z,22.68
2022-09-21T12:18:04.600Z,23.50
2022-09-21T12:21:05.091Z,22.90
2022-09-21T12:24:03.916Z,23.09
2022-09-21T12:26:41.823Z,22.84
2022-09-21T12:29:17.439Z,23.19
2022-09-21T12:32:02.030Z,23.78
2022-09-21T12:34:41.956Z,23.99
2022-09-21T12:37:25.355Z,24.80
2022-09-21T12:40:19.308Z,24.84
2022-09-21T12:43:03.395Z,24.90
2022-09-21T12:45:39.353Z,24.79
2022-09-21T12:48:12.689Z,25.34
2022-09-21T12:50:48.527Z,24.93
2022-09-21T12:53:21.274Z,24.88
2022-09-21T12:56:09.045Z,25.04
2022-09-21T12:59:14.818Z,25.12
2022-09-21T13:01:45.217Z,24.93
2022-09-21T13:04:16.187Z,25.03
2022-09-21T13:07:02.024Z,25.04
2022-09-21T13:09:31.791Z,25.38
2022-09-21T13:12:04.303Z,24.50
2022-09-21T13:14:36.210Z,24.37
2022-09-21T13:17:05.067Z,24.93
2022-09-21T13:19:36.840Z,24.89
2022-09-21T13:22:16.062Z,25.02
2022-09-21T13:24:45.437Z,24.94
2022-09-21T13:27:15.979Z,24.73
2022-09-21T13:29:43.223Z,24.91
2022-09-21T13:32:10.694Z,24.85
2022-09-21T13:34:45.316Z,24.08
2022-09-21T13:37:17.227Z,23.76
2022-09-21T13:39:50.471Z,23.13
2022-09-21T13:42:30.038Z,23.69
2022-09-21T13:45:04.757Z,24.39
2022-09-21T13:47:39.134Z,24.62
2022-09-21T13:50:27.151Z,24.38
2022-09-21T13:53:01.135Z,23.72
2022-09-21T13:55:34.306Z,23.36
2022-09-21T13:58:18.587Z,23.24
2022-09-21T14:00:54.161Z,23.69
2022-09-21T14:03:26.013Z,23.91
2022-09-21T14:06:07.552Z,23.66
2022-09-21T14:09:00.571Z,23.84
2022-09-21T14:11:54.240Z,23.68
2022-09-21T14:14:31.983Z,23.98
2022-09-21T14:17:02.312Z,23.88
2022-09-21T14:19:33.430Z,24.01
2022-09-21T14:22:03.398Z,24.20
2022-09-21T14:24:44.848Z,23.89
2022-09-21T14:27:28.210Z,23.93
2022-09-21T14:30:05.739Z,23.96
2022-09-21T14:32:46.031Z,23.93
2022-09-21T14:35:18.790Z,24.41
2022-09-21T14:37:52.778Z,23.59
2022-09-21T14:40:36.584Z,23.71
2022-09-21T14:43:09.621Z,23.58
2022-09-21T14:46:16.741Z,23.56
2022-09-21T14:49:07.256Z,23.67
2022-09-21T14:52:12.912Z,23.14
2022-09-21T14:55:02.662Z,22.97
2022-09-21T14:57:40.710Z,22.81
2022-09-21T15:00:14.364Z,22.53
2022-09-21T15:02:44.547Z,22.58
2022-09-21T15:05:40.995Z,22.70
2022-09-21T15:09:00.830Z,22.80
2022-09-21T15:11:42.290Z,22.47
2022-09-21T15:14:27.169Z,22.52
2022-09-21T15:16:54.522Z,22.31
2022-09-21T15:19:27.225Z,21.83
2022-09-21T15:21:56.935Z,21.57
2022-09-21T15:24:34.238Z,21.61
2022-09-21T15:27:10.306Z,22.03
2022-09-21T15:29:37.981Z,22.11
2022-09-21T15:32:08.373Z,22.29
2022-09-21T15:34:35.729Z,22.43
2022-09-21T15:37:08.302Z,22.20
2022-09-21T15:39:35.708Z,22.06
2022-09-21T15:42:22.640Z,22.07
2022-09-21T15:45:05.993Z,22.16
2022-09-21T15:47:34.032Z,22.20
2022-09-21T15:50:01.546Z,22.11
2022-09-21T15:52:43.131Z,22.17
2022-09-21T15:55:21.429Z,22.21
2022-09-21T15:57:51.582Z,21.80
2022-09-21T16:00:22.224Z,21.78
2022-09-21T16:02:58.926Z,22.08
2022-09-21T16:05:26.496Z,21.92
2022-09-21T16:08:06.411Z,21.84
2022-09-21T16:10:33.671Z,21.52
2022-09-21T16:13:41.310Z,21.37
2022-09-21T16:16:11.146Z,21.49
2022-09-21T16:18:49.625Z,21.39
2022-09-21T16:21:32.285Z,21.23
2022-09-21T16:24:21.217Z,21.26
2022-09-21T16:27:04.042Z,21.25
2022-09-21T16:29:41.342Z,21.06
2022-09-21T16:32:17.472Z,20.82
2022-09-21T16:34:46.722Z,20.86
2022-09-21T16:37:32.180Z,20.53
2022-09-21T16:39:59.750Z,20.62
2022-09-21T16:42:33.174Z,20.73
2022-09-21T16:45:01.188Z,20.59
2022-09-21T16:47:29.170Z,20.54
2022-09-21T16:50:01.404Z,20.44
2022-09-21T16:52:30.160Z,20.57
2022-09-21T16:55:00.295Z,20.49
2022-09-21T16:57:27.802Z,20.25
2022-09-21T16:59:55.113Z,20.30
2022-09-21T17:02:22.391Z,20.31
2022-09-21T17:04:49.838Z,20.17
2022-09-21T17:07:18.862Z,20.02
2022-09-21T17:09:47.840Z,20.05
2022-09-21T17:12:17.796Z,20.00
2022-09-21T17:14:47.140Z,19.98
2022-09-21T17:17:23.999Z,19.92
2022-09-21T17:19:53.792Z,19.66
2022-09-21T17:22:21.912Z,19.63
2022-09-21T17:24:52.281Z,19.59
2022-09-21T17:27:23.744Z,19.52
2022-09-21T17:29:51.165Z,19.51
2022-09-21T17:32:20.863Z,19.50
2022-09-21T17:34:58.820Z,19.30
2022-09-21T17:37:27.252Z,19.29
2022-09-21T17:39:54.842Z,19.32
2022-09-21T17:42:25.107Z,19.11
2022-09-21T17:45:04.087Z,19.03
2022-09-21T17:47:33.657Z,18.74
2022-09-21T17:50:13.195Z,18.75
2022-09-21T17:53:00.789Z,18.82
2022-09-21T17:55:28.853Z,19.04
2022-09-21T17:58:07.383Z,19.11
2022-09-21T18:01:01.934Z,18.88
2022-09-21T18:03:33.368Z,18.86
2022-09-21T18:06:00.952Z,18.92
2022-09-21T18:08:33.914Z,18.72
2022-09-21T18:11:30.679Z,18.68
2022-09-21T18:14:39.287Z,18.64
2022-09-21T18:17:44.800Z,18.46
2022-09-21T18:20:42.681Z,18.20
2022-09-21T18:23:17.892Z,17.95
2022-09-21T18:25:49.135Z,17.94
2022-09-21T18:28:34.499Z,17.82
2022-09-21T18:31:18.702Z,17.94
2022-09-21T18:34:24.138Z,17.74
2022-09-21T18:36:59.274Z,17.65
2022-09-21T18:39:57.091Z,17.56
2022-09-21T18:42:40.409Z,17.35
2022-09-21T18:45:21.227Z,17.47
2022-09-21T18:47:59.176Z,17.37
2022-09-21T18:50:35.436Z,17.31
2022-09-21T18:53:14.667Z,17.30
2022-09-21T18:55:42.298Z,17.28
2022-09-21T18:58:16.023Z,17.33
2022-09-21T19:00:44.253Z,17.30
2022-09-21T19:03:18.048Z,17.27
2022-09-21T19:06:20.204Z,17.31
2022-09-21T19:09:23.234Z,17.26
2022-09-21T19:12:18.062Z,17.31
2022-09-21T19:15:12.120Z,17.27
2022-09-21T19:17:54.726Z,17.29
2022-09-21T19:20:33.810Z,17.31
2022-09-21T19:23:13.165Z,17.23
2022-09-21T19:25:49.353Z,17.20
2022-09-21T19:28:42.470Z,17.25
2022-09-21T19:31:13.531Z,17.19
2022-09-21T19:33:56.434Z,17.18
2022-09-21T19:36:24.321Z,17.13
2022-09-21T19:38:51.906Z,17.03
2022-09-21T19:41:31.653Z,17.08
2022-09-21T19:44:09.297Z,16.92
2022-09-21T19:47:06.513Z,16.98
2022-09-21T19:49:47.210Z,16.85
2022-09-21T19:52:19.181Z,16.87
2022-09-21T19:55:05.459Z,16.78
2022-09-21T19:57:52.883Z,16.80
2022-09-21T20:00:21.113Z,16.80
2022-09-21T20:03:14.111Z,16.81
2022-09-21T20:05:59.685Z,16.82
2022-09-21T20:08:35.484Z,16.78
2022-09-21T20:11:10.455Z,16.74
2022-09-21T20:14:09.886Z,16.66
2022-09-21T20:16:55.258Z,16.76
2022-09-21T20:19:46.716Z,16.58
2022-09-21T20:22:19.628Z,16.63
2022-09-21T20:25:23.389Z,16.50
2022-09-21T20:27:53.374Z,16.48
2022-09-21T20:30:33.167Z,16.46
2022-09-21T20:33:06.789Z,16.53
2022-09-21T20:35:35.133Z,16.42
2022-09-21T20:38:03.270Z,16.50
2022-09-21T20:40:32.152Z,16.61
2022-09-21T20:43:03.395Z,16.43
2022-09-21T20:45:33.291Z,16.43
2022-09-21T20:48:13.105Z,16.48
2022-09-21T20:50:49.443Z,16.36
2022-09-21T20:53:19.072Z,16.22
2022-09-21T20:55:57.934Z,16.46
2022-09-21T20:58:25.254Z,16.40
2022-09-21T21:00:57.963Z,16.32
2022-09-21T21:03:26.333Z,16.34
2022-09-21T21:05:53.659Z,16.51
2022-09-21T21:08:20.926Z,16.45
2022-09-21T21:10:48.158Z,16.45
2022-09-21T21:13:15.435Z,16.44
2022-09-21T21:15:42.718Z,16.37
2022-09-21T21:18:13.789Z,16.45
2022-09-21T21:20:41.086Z,16.37
2022-09-21T21:23:08.682Z,16.33
2022-09-21T21:25:36.006Z,16.31
2022-09-21T21:28:03.475Z,16.45
2022-09-21T21:30:31.496Z,16.44
2022-09-21T21:32:58.855Z,16.48
2022-09-21T21:35:26.145Z,16.58
2022-09-21T21:37:53.419Z,16.68
2022-09-21T21:40:20.958Z,16.66
2022-09-21T21:42:48.515Z,16.66
2022-09-21T21:45:15.824Z,16.64
2022-09-21T21:47:43.155Z,16.60
2022-09-21T21:50:11.060Z,16.55
2022-09-21T21:52:38.693Z,16.52
2022-09-21T21:55:08.896Z,16.62
2022-09-21T21:57:36.357Z,16.62
2022-09-21T22:00:05.653Z,16.64
2022-09-21T22:02:32.985Z,16.70
2022-09-21T22:05:00.289Z,16.66
2022-09-21T22:07:27.522Z,16.55
2022-09-21T22:09:55.600Z,16.65
2022-09-21T22:12:22.891Z,16.72
2022-09-21T22:14:50.156Z,16.66
2022-09-21T22:17:17.387Z,16.70
2022-09-21T22:19:45.192Z,16.72
2022-09-21T22:22:16.113Z,16.69
2022-09-21T22:24:43.942Z,16.61
2022-09-21T22:27:11.238Z,16.60
2022-09-21T22:29:39.547Z,16.64
2022-09-21T22:32:07.166Z,16.71
2022-09-21T22:34:34.509Z,16.79
2022-09-21T22:37:01.752Z,16.68
2022-09-21T22:39:29.015Z,16.68
2022-09-21T22:41:59.351Z,16.70
2022-09-21T22:44:28.763Z,16.69
2022-09-21T22:46:56.219Z,16.72
2022-09-21T22:49:23.604Z,16.70
2022-09-21T22:51:50.807Z,16.72
2022-09-21T22:54:18.085Z,16.65
2022-09-21T22:56:45.331Z,16.64
2022-09-21T22:59:12.722Z,16.69
2022-09-21T23:01:41.294Z,16.61
2022-09-21T23:04:11.031Z,16.56
2022-09-21T23:06:40.703Z,16.53
2022-09-21T23:09:13.590Z,16.60
2022-09-21T23:11:43.307Z,16.66
2022-09-21T23:14:11.585Z,16.64
2022-09-21T23:16:38.947Z,16.57
2022-09-21T23:19:07.141Z,16.50
2022-09-21T23:21:34.350Z,16.41
2022-09-21T23:24:02.956Z,16.25
2022-09-21T23:26:34.665Z,16.28
2022-09-21T23:29:11.826Z,16.34
2022-09-21T23:31:44.456Z,16.32
2022-09-21T23:34:12.839Z,16.28
2022-09-21T23:36:41.206Z,16.24
2022-09-21T23:39:12.039Z,16.28
2022-09-21T23:41:39.850Z,16.21
2022-09-21T23:44:07.600Z,16.25
2022-09-21T23:46:37.480Z,16.24
2022-09-21T23:49:05.137Z,16.18
2022-09-21T23:51:32.535Z,16.41
2022-09-21T23:54:00.359Z,16.34
2022-09-21T23:56:28.609Z,16.27
2022-09-21T23:58:56.084Z,16.21
